<?xml version="1.0" encoding="UTF-8" standalone="no" ?>
<gpx xmlns="http://www.topografix.com/GPX/1/1" xmlns:xsi="http://www.w3.org/2001/XMLSchema-instance" xsi:schemaLocation="http://www.topografix.com/GPX/1/1 http://www.topografix.com/GPX/1/1/gpx.xsd" version="1.1" creator="VisuGPX - https://www.visugpx.com">
  <metadata>
    <name>Run - 2010 11 konic </name>
    <desc><![CDATA[De nuit, direction le mémorial]]></desc>
  </metadata>
  <trk>
    <name><![CDATA[Track 2010-11-05 18:26]]></name>
    <trkseg>
      <trkpt lat="49.21162" lon="-0.37087">
        <ele>117</ele>
        <time>2010-11-05T17:31:46Z</time>
      </trkpt>
      <trkpt lat="49.21157" lon="-0.37085">
        <ele>117</ele>
        <time>2010-11-05T17:31:48Z</time>
      </trkpt>
      <trkpt lat="49.21153" lon="-0.37079">
        <ele>116</ele>
        <time>2010-11-05T17:31:50Z</time>
      </trkpt>
      <trkpt lat="49.21148" lon="-0.37073">
        <ele>116</ele>
        <time>2010-11-05T17:31:52Z</time>
      </trkpt>
      <trkpt lat="49.21143" lon="-0.37071">
        <ele>116</ele>
        <time>2010-11-05T17:31:54Z</time>
      </trkpt>
      <trkpt lat="49.21137" lon="-0.3707">
        <ele>116</ele>
        <time>2010-11-05T17:31:56Z</time>
      </trkpt>
      <trkpt lat="49.21132" lon="-0.3707">
        <ele>116</ele>
        <time>2010-11-05T17:31:58Z</time>
      </trkpt>
      <trkpt lat="49.21127" lon="-0.37069">
        <ele>115</ele>
        <time>2010-11-05T17:32:00Z</time>
      </trkpt>
      <trkpt lat="49.21121" lon="-0.37068">
        <ele>116</ele>
        <time>2010-11-05T17:32:03Z</time>
      </trkpt>
      <trkpt lat="49.21118" lon="-0.37062">
        <ele>116</ele>
        <time>2010-11-05T17:32:05Z</time>
      </trkpt>
      <trkpt lat="49.21115" lon="-0.37055">
        <ele>115</ele>
        <time>2010-11-05T17:32:07Z</time>
      </trkpt>
      <trkpt lat="49.21105" lon="-0.3705">
        <ele>113</ele>
        <time>2010-11-05T17:32:13Z</time>
      </trkpt>
      <trkpt lat="49.211" lon="-0.37055">
        <ele>110</ele>
        <time>2010-11-05T17:32:15Z</time>
      </trkpt>
      <trkpt lat="49.21095" lon="-0.37059">
        <ele>110</ele>
        <time>2010-11-05T17:32:17Z</time>
      </trkpt>
      <trkpt lat="49.21085" lon="-0.37056">
        <ele>113</ele>
        <time>2010-11-05T17:32:23Z</time>
      </trkpt>
      <trkpt lat="49.2108" lon="-0.3705">
        <ele>114</ele>
        <time>2010-11-05T17:32:26Z</time>
      </trkpt>
      <trkpt lat="49.21073" lon="-0.37048">
        <ele>114</ele>
        <time>2010-11-05T17:32:28Z</time>
      </trkpt>
      <trkpt lat="49.21068" lon="-0.37049">
        <ele>114</ele>
        <time>2010-11-05T17:32:30Z</time>
      </trkpt>
      <trkpt lat="49.21061" lon="-0.37047">
        <ele>115</ele>
        <time>2010-11-05T17:32:33Z</time>
      </trkpt>
      <trkpt lat="49.21052" lon="-0.37052">
        <ele>115</ele>
        <time>2010-11-05T17:32:37Z</time>
      </trkpt>
      <trkpt lat="49.21049" lon="-0.37061">
        <ele>115</ele>
        <time>2010-11-05T17:32:40Z</time>
      </trkpt>
      <trkpt lat="49.21044" lon="-0.37066">
        <ele>115</ele>
        <time>2010-11-05T17:32:44Z</time>
      </trkpt>
      <trkpt lat="49.21038" lon="-0.3707">
        <ele>112</ele>
        <time>2010-11-05T17:32:47Z</time>
      </trkpt>
      <trkpt lat="49.21033" lon="-0.37071">
        <ele>110</ele>
        <time>2010-11-05T17:32:50Z</time>
      </trkpt>
      <trkpt lat="49.21026" lon="-0.37075">
        <ele>111</ele>
        <time>2010-11-05T17:32:53Z</time>
      </trkpt>
      <trkpt lat="49.21022" lon="-0.37081">
        <ele>110</ele>
        <time>2010-11-05T17:32:55Z</time>
      </trkpt>
      <trkpt lat="49.21018" lon="-0.37087">
        <ele>109</ele>
        <time>2010-11-05T17:32:57Z</time>
      </trkpt>
      <trkpt lat="49.21013" lon="-0.37093">
        <ele>109</ele>
        <time>2010-11-05T17:32:59Z</time>
      </trkpt>
      <trkpt lat="49.21004" lon="-0.37098">
        <ele>109</ele>
        <time>2010-11-05T17:33:03Z</time>
      </trkpt>
      <trkpt lat="49.20998" lon="-0.371">
        <ele>109</ele>
        <time>2010-11-05T17:33:05Z</time>
      </trkpt>
      <trkpt lat="49.20993" lon="-0.37104">
        <ele>109</ele>
        <time>2010-11-05T17:33:07Z</time>
      </trkpt>
      <trkpt lat="49.20989" lon="-0.37113">
        <ele>109</ele>
        <time>2010-11-05T17:33:10Z</time>
      </trkpt>
      <trkpt lat="49.20984" lon="-0.37128">
        <ele>108</ele>
        <time>2010-11-05T17:33:14Z</time>
      </trkpt>
      <trkpt lat="49.20981" lon="-0.37143">
        <ele>108</ele>
        <time>2010-11-05T17:33:18Z</time>
      </trkpt>
      <trkpt lat="49.20976" lon="-0.37158">
        <ele>108</ele>
        <time>2010-11-05T17:33:22Z</time>
      </trkpt>
      <trkpt lat="49.20973" lon="-0.37172">
        <ele>108</ele>
        <time>2010-11-05T17:33:26Z</time>
      </trkpt>
      <trkpt lat="49.20972" lon="-0.3718">
        <ele>109</ele>
        <time>2010-11-05T17:33:28Z</time>
      </trkpt>
      <trkpt lat="49.20969" lon="-0.37194">
        <ele>108</ele>
        <time>2010-11-05T17:33:32Z</time>
      </trkpt>
      <trkpt lat="49.20968" lon="-0.37201">
        <ele>108</ele>
        <time>2010-11-05T17:33:34Z</time>
      </trkpt>
      <trkpt lat="49.20969" lon="-0.37208">
        <ele>108</ele>
        <time>2010-11-05T17:33:36Z</time>
      </trkpt>
      <trkpt lat="49.20972" lon="-0.37214">
        <ele>107</ele>
        <time>2010-11-05T17:33:39Z</time>
      </trkpt>
      <trkpt lat="49.20969" lon="-0.37224">
        <ele>107</ele>
        <time>2010-11-05T17:33:42Z</time>
      </trkpt>
      <trkpt lat="49.20965" lon="-0.37229">
        <ele>108</ele>
        <time>2010-11-05T17:33:44Z</time>
      </trkpt>
      <trkpt lat="49.20963" lon="-0.37235">
        <ele>108</ele>
        <time>2010-11-05T17:33:46Z</time>
      </trkpt>
      <trkpt lat="49.20959" lon="-0.37245">
        <ele>108</ele>
        <time>2010-11-05T17:33:49Z</time>
      </trkpt>
      <trkpt lat="49.20957" lon="-0.37253">
        <ele>107</ele>
        <time>2010-11-05T17:33:51Z</time>
      </trkpt>
      <trkpt lat="49.20954" lon="-0.37262">
        <ele>107</ele>
        <time>2010-11-05T17:33:54Z</time>
      </trkpt>
      <trkpt lat="49.20952" lon="-0.37278">
        <ele>106</ele>
        <time>2010-11-05T17:33:58Z</time>
      </trkpt>
      <trkpt lat="49.20949" lon="-0.37292">
        <ele>107</ele>
        <time>2010-11-05T17:34:02Z</time>
      </trkpt>
      <trkpt lat="49.20946" lon="-0.37306">
        <ele>107</ele>
        <time>2010-11-05T17:34:06Z</time>
      </trkpt>
      <trkpt lat="49.20946" lon="-0.37315">
        <ele>108</ele>
        <time>2010-11-05T17:34:08Z</time>
      </trkpt>
      <trkpt lat="49.20944" lon="-0.37323">
        <ele>107</ele>
        <time>2010-11-05T17:34:10Z</time>
      </trkpt>
      <trkpt lat="49.20939" lon="-0.37337">
        <ele>107</ele>
        <time>2010-11-05T17:34:14Z</time>
      </trkpt>
      <trkpt lat="49.20938" lon="-0.37346">
        <ele>107</ele>
        <time>2010-11-05T17:34:16Z</time>
      </trkpt>
      <trkpt lat="49.20936" lon="-0.37362">
        <ele>107</ele>
        <time>2010-11-05T17:34:20Z</time>
      </trkpt>
      <trkpt lat="49.20933" lon="-0.3738">
        <ele>108</ele>
        <time>2010-11-05T17:34:25Z</time>
      </trkpt>
      <trkpt lat="49.20931" lon="-0.3739">
        <ele>108</ele>
        <time>2010-11-05T17:34:28Z</time>
      </trkpt>
      <trkpt lat="49.20929" lon="-0.37399">
        <ele>107</ele>
        <time>2010-11-05T17:34:30Z</time>
      </trkpt>
      <trkpt lat="49.20926" lon="-0.37415">
        <ele>107</ele>
        <time>2010-11-05T17:34:34Z</time>
      </trkpt>
      <trkpt lat="49.20924" lon="-0.3743">
        <ele>107</ele>
        <time>2010-11-05T17:34:38Z</time>
      </trkpt>
      <trkpt lat="49.2092" lon="-0.37446">
        <ele>108</ele>
        <time>2010-11-05T17:34:43Z</time>
      </trkpt>
      <trkpt lat="49.20918" lon="-0.37463">
        <ele>108</ele>
        <time>2010-11-05T17:34:47Z</time>
      </trkpt>
      <trkpt lat="49.20913" lon="-0.3748">
        <ele>108</ele>
        <time>2010-11-05T17:34:52Z</time>
      </trkpt>
      <trkpt lat="49.2091" lon="-0.37497">
        <ele>109</ele>
        <time>2010-11-05T17:34:57Z</time>
      </trkpt>
      <trkpt lat="49.20908" lon="-0.37512">
        <ele>108</ele>
        <time>2010-11-05T17:35:01Z</time>
      </trkpt>
      <trkpt lat="49.20904" lon="-0.37529">
        <ele>108</ele>
        <time>2010-11-05T17:35:06Z</time>
      </trkpt>
      <trkpt lat="49.209" lon="-0.37546">
        <ele>108</ele>
        <time>2010-11-05T17:35:10Z</time>
      </trkpt>
      <trkpt lat="49.20898" lon="-0.37561">
        <ele>108</ele>
        <time>2010-11-05T17:35:14Z</time>
      </trkpt>
      <trkpt lat="49.20893" lon="-0.37575">
        <ele>109</ele>
        <time>2010-11-05T17:35:18Z</time>
      </trkpt>
      <trkpt lat="49.20888" lon="-0.37593">
        <ele>108</ele>
        <time>2010-11-05T17:35:23Z</time>
      </trkpt>
      <trkpt lat="49.20885" lon="-0.3761">
        <ele>108</ele>
        <time>2010-11-05T17:35:27Z</time>
      </trkpt>
      <trkpt lat="49.20884" lon="-0.37629">
        <ele>108</ele>
        <time>2010-11-05T17:35:31Z</time>
      </trkpt>
      <trkpt lat="49.20886" lon="-0.37645">
        <ele>108</ele>
        <time>2010-11-05T17:35:35Z</time>
      </trkpt>
      <trkpt lat="49.20889" lon="-0.37659">
        <ele>108</ele>
        <time>2010-11-05T17:35:38Z</time>
      </trkpt>
      <trkpt lat="49.20884" lon="-0.37672">
        <ele>108</ele>
        <time>2010-11-05T17:35:45Z</time>
      </trkpt>
      <trkpt lat="49.20876" lon="-0.3768">
        <ele>108</ele>
        <time>2010-11-05T17:35:50Z</time>
      </trkpt>
      <trkpt lat="49.2087" lon="-0.37692">
        <ele>107</ele>
        <time>2010-11-05T17:35:53Z</time>
      </trkpt>
      <trkpt lat="49.20865" lon="-0.37706">
        <ele>107</ele>
        <time>2010-11-05T17:35:58Z</time>
      </trkpt>
      <trkpt lat="49.20862" lon="-0.37722">
        <ele>107</ele>
        <time>2010-11-05T17:36:03Z</time>
      </trkpt>
      <trkpt lat="49.20859" lon="-0.37731">
        <ele>107</ele>
        <time>2010-11-05T17:36:06Z</time>
      </trkpt>
      <trkpt lat="49.20856" lon="-0.3774">
        <ele>107</ele>
        <time>2010-11-05T17:36:09Z</time>
      </trkpt>
      <trkpt lat="49.20851" lon="-0.37753">
        <ele>107</ele>
        <time>2010-11-05T17:36:14Z</time>
      </trkpt>
      <trkpt lat="49.20846" lon="-0.37767">
        <ele>107</ele>
        <time>2010-11-05T17:36:19Z</time>
      </trkpt>
      <trkpt lat="49.20842" lon="-0.37773">
        <ele>106</ele>
        <time>2010-11-05T17:36:22Z</time>
      </trkpt>
      <trkpt lat="49.20835" lon="-0.37784">
        <ele>106</ele>
        <time>2010-11-05T17:36:26Z</time>
      </trkpt>
      <trkpt lat="49.20831" lon="-0.37791">
        <ele>106</ele>
        <time>2010-11-05T17:36:29Z</time>
      </trkpt>
      <trkpt lat="49.20827" lon="-0.37799">
        <ele>106</ele>
        <time>2010-11-05T17:36:32Z</time>
      </trkpt>
      <trkpt lat="49.20821" lon="-0.37812">
        <ele>106</ele>
        <time>2010-11-05T17:36:36Z</time>
      </trkpt>
      <trkpt lat="49.20814" lon="-0.37825">
        <ele>106</ele>
        <time>2010-11-05T17:36:41Z</time>
      </trkpt>
      <trkpt lat="49.20811" lon="-0.37834">
        <ele>106</ele>
        <time>2010-11-05T17:36:44Z</time>
      </trkpt>
      <trkpt lat="49.20804" lon="-0.37848">
        <ele>106</ele>
        <time>2010-11-05T17:36:49Z</time>
      </trkpt>
      <trkpt lat="49.20798" lon="-0.37863">
        <ele>106</ele>
        <time>2010-11-05T17:36:54Z</time>
      </trkpt>
      <trkpt lat="49.20791" lon="-0.37877">
        <ele>105</ele>
        <time>2010-11-05T17:36:58Z</time>
      </trkpt>
      <trkpt lat="49.20788" lon="-0.37885">
        <ele>105</ele>
        <time>2010-11-05T17:37:00Z</time>
      </trkpt>
      <trkpt lat="49.20781" lon="-0.379">
        <ele>105</ele>
        <time>2010-11-05T17:37:05Z</time>
      </trkpt>
      <trkpt lat="49.20776" lon="-0.37912">
        <ele>105</ele>
        <time>2010-11-05T17:37:09Z</time>
      </trkpt>
      <trkpt lat="49.20773" lon="-0.37921">
        <ele>105</ele>
        <time>2010-11-05T17:37:12Z</time>
      </trkpt>
      <trkpt lat="49.20769" lon="-0.37928">
        <ele>105</ele>
        <time>2010-11-05T17:37:15Z</time>
      </trkpt>
      <trkpt lat="49.20765" lon="-0.37934">
        <ele>105</ele>
        <time>2010-11-05T17:37:17Z</time>
      </trkpt>
      <trkpt lat="49.20762" lon="-0.37942">
        <ele>105</ele>
        <time>2010-11-05T17:37:19Z</time>
      </trkpt>
      <trkpt lat="49.20759" lon="-0.3795">
        <ele>105</ele>
        <time>2010-11-05T17:37:21Z</time>
      </trkpt>
      <trkpt lat="49.20752" lon="-0.37962">
        <ele>105</ele>
        <time>2010-11-05T17:37:25Z</time>
      </trkpt>
      <trkpt lat="49.20745" lon="-0.37973">
        <ele>105</ele>
        <time>2010-11-05T17:37:29Z</time>
      </trkpt>
      <trkpt lat="49.20738" lon="-0.37984">
        <ele>105</ele>
        <time>2010-11-05T17:37:33Z</time>
      </trkpt>
      <trkpt lat="49.20732" lon="-0.37996">
        <ele>105</ele>
        <time>2010-11-05T17:37:37Z</time>
      </trkpt>
      <trkpt lat="49.20724" lon="-0.38006">
        <ele>105</ele>
        <time>2010-11-05T17:37:42Z</time>
      </trkpt>
      <trkpt lat="49.20717" lon="-0.38019">
        <ele>106</ele>
        <time>2010-11-05T17:37:47Z</time>
      </trkpt>
      <trkpt lat="49.20714" lon="-0.38026">
        <ele>106</ele>
        <time>2010-11-05T17:37:49Z</time>
      </trkpt>
      <trkpt lat="49.20711" lon="-0.38033">
        <ele>106</ele>
        <time>2010-11-05T17:37:52Z</time>
      </trkpt>
      <trkpt lat="49.20706" lon="-0.38048">
        <ele>106</ele>
        <time>2010-11-05T17:37:57Z</time>
      </trkpt>
      <trkpt lat="49.20704" lon="-0.38062">
        <ele>107</ele>
        <time>2010-11-05T17:38:01Z</time>
      </trkpt>
      <trkpt lat="49.20701" lon="-0.38071">
        <ele>107</ele>
        <time>2010-11-05T17:38:04Z</time>
      </trkpt>
      <trkpt lat="49.20696" lon="-0.38083">
        <ele>107</ele>
        <time>2010-11-05T17:38:08Z</time>
      </trkpt>
      <trkpt lat="49.20688" lon="-0.38095">
        <ele>107</ele>
        <time>2010-11-05T17:38:13Z</time>
      </trkpt>
      <trkpt lat="49.20681" lon="-0.38109">
        <ele>109</ele>
        <time>2010-11-05T17:38:18Z</time>
      </trkpt>
      <trkpt lat="49.20672" lon="-0.38124">
        <ele>109</ele>
        <time>2010-11-05T17:38:24Z</time>
      </trkpt>
      <trkpt lat="49.20666" lon="-0.38135">
        <ele>109</ele>
        <time>2010-11-05T17:38:28Z</time>
      </trkpt>
      <trkpt lat="49.20659" lon="-0.38147">
        <ele>109</ele>
        <time>2010-11-05T17:38:33Z</time>
      </trkpt>
      <trkpt lat="49.20652" lon="-0.38164">
        <ele>109</ele>
        <time>2010-11-05T17:38:39Z</time>
      </trkpt>
      <trkpt lat="49.20646" lon="-0.38177">
        <ele>110</ele>
        <time>2010-11-05T17:38:43Z</time>
      </trkpt>
      <trkpt lat="49.2064" lon="-0.38195">
        <ele>110</ele>
        <time>2010-11-05T17:38:47Z</time>
      </trkpt>
      <trkpt lat="49.20588" lon="-0.38261">
        <ele>108</ele>
        <time>2010-11-05T17:39:16Z</time>
      </trkpt>
      <trkpt lat="49.20577" lon="-0.38274">
        <ele>107</ele>
        <time>2010-11-05T17:39:22Z</time>
      </trkpt>
      <trkpt lat="49.20569" lon="-0.38287">
        <ele>106</ele>
        <time>2010-11-05T17:39:27Z</time>
      </trkpt>
      <trkpt lat="49.20563" lon="-0.38303">
        <ele>107</ele>
        <time>2010-11-05T17:39:32Z</time>
      </trkpt>
      <trkpt lat="49.20556" lon="-0.3832">
        <ele>106</ele>
        <time>2010-11-05T17:39:38Z</time>
      </trkpt>
      <trkpt lat="49.20552" lon="-0.38335">
        <ele>106</ele>
        <time>2010-11-05T17:39:42Z</time>
      </trkpt>
      <trkpt lat="49.20545" lon="-0.3835">
        <ele>106</ele>
        <time>2010-11-05T17:39:46Z</time>
      </trkpt>
      <trkpt lat="49.20537" lon="-0.38361">
        <ele>105</ele>
        <time>2010-11-05T17:39:51Z</time>
      </trkpt>
      <trkpt lat="49.20531" lon="-0.38372">
        <ele>104</ele>
        <time>2010-11-05T17:39:55Z</time>
      </trkpt>
      <trkpt lat="49.20523" lon="-0.38386">
        <ele>102</ele>
        <time>2010-11-05T17:40:01Z</time>
      </trkpt>
      <trkpt lat="49.20517" lon="-0.384">
        <ele>102</ele>
        <time>2010-11-05T17:40:07Z</time>
      </trkpt>
      <trkpt lat="49.2051" lon="-0.38411">
        <ele>102</ele>
        <time>2010-11-05T17:40:13Z</time>
      </trkpt>
      <trkpt lat="49.20503" lon="-0.38426">
        <ele>102</ele>
        <time>2010-11-05T17:40:18Z</time>
      </trkpt>
      <trkpt lat="49.20499" lon="-0.38432">
        <ele>102</ele>
        <time>2010-11-05T17:40:21Z</time>
      </trkpt>
      <trkpt lat="49.20496" lon="-0.3844">
        <ele>102</ele>
        <time>2010-11-05T17:40:24Z</time>
      </trkpt>
      <trkpt lat="49.20489" lon="-0.38454">
        <ele>102</ele>
        <time>2010-11-05T17:40:29Z</time>
      </trkpt>
      <trkpt lat="49.20482" lon="-0.38467">
        <ele>102</ele>
        <time>2010-11-05T17:40:34Z</time>
      </trkpt>
      <trkpt lat="49.20479" lon="-0.38475">
        <ele>103</ele>
        <time>2010-11-05T17:40:37Z</time>
      </trkpt>
      <trkpt lat="49.20473" lon="-0.38487">
        <ele>103</ele>
        <time>2010-11-05T17:40:41Z</time>
      </trkpt>
      <trkpt lat="49.20469" lon="-0.38495">
        <ele>103</ele>
        <time>2010-11-05T17:40:44Z</time>
      </trkpt>
      <trkpt lat="49.20465" lon="-0.38511">
        <ele>103</ele>
        <time>2010-11-05T17:40:48Z</time>
      </trkpt>
      <trkpt lat="49.20458" lon="-0.38522">
        <ele>103</ele>
        <time>2010-11-05T17:40:52Z</time>
      </trkpt>
      <trkpt lat="49.20452" lon="-0.38535">
        <ele>103</ele>
        <time>2010-11-05T17:40:56Z</time>
      </trkpt>
      <trkpt lat="49.2045" lon="-0.38544">
        <ele>104</ele>
        <time>2010-11-05T17:40:59Z</time>
      </trkpt>
      <trkpt lat="49.20446" lon="-0.38552">
        <ele>104</ele>
        <time>2010-11-05T17:41:02Z</time>
      </trkpt>
      <trkpt lat="49.20443" lon="-0.38562">
        <ele>104</ele>
        <time>2010-11-05T17:41:05Z</time>
      </trkpt>
      <trkpt lat="49.20438" lon="-0.38577">
        <ele>104</ele>
        <time>2010-11-05T17:41:10Z</time>
      </trkpt>
      <trkpt lat="49.20435" lon="-0.38593">
        <ele>104</ele>
        <time>2010-11-05T17:41:14Z</time>
      </trkpt>
      <trkpt lat="49.20431" lon="-0.38609">
        <ele>104</ele>
        <time>2010-11-05T17:41:19Z</time>
      </trkpt>
      <trkpt lat="49.20426" lon="-0.38624">
        <ele>104</ele>
        <time>2010-11-05T17:41:24Z</time>
      </trkpt>
      <trkpt lat="49.20421" lon="-0.38637">
        <ele>104</ele>
        <time>2010-11-05T17:41:28Z</time>
      </trkpt>
      <trkpt lat="49.20416" lon="-0.3865">
        <ele>104</ele>
        <time>2010-11-05T17:41:32Z</time>
      </trkpt>
      <trkpt lat="49.20411" lon="-0.38667">
        <ele>104</ele>
        <time>2010-11-05T17:41:38Z</time>
      </trkpt>
      <trkpt lat="49.20405" lon="-0.38684">
        <ele>104</ele>
        <time>2010-11-05T17:41:43Z</time>
      </trkpt>
      <trkpt lat="49.20401" lon="-0.38699">
        <ele>104</ele>
        <time>2010-11-05T17:41:47Z</time>
      </trkpt>
      <trkpt lat="49.20398" lon="-0.38714">
        <ele>104</ele>
        <time>2010-11-05T17:41:51Z</time>
      </trkpt>
      <trkpt lat="49.20393" lon="-0.38731">
        <ele>104</ele>
        <time>2010-11-05T17:41:56Z</time>
      </trkpt>
      <trkpt lat="49.20391" lon="-0.38747">
        <ele>105</ele>
        <time>2010-11-05T17:42:00Z</time>
      </trkpt>
      <trkpt lat="49.20389" lon="-0.38761">
        <ele>105</ele>
        <time>2010-11-05T17:42:04Z</time>
      </trkpt>
      <trkpt lat="49.20386" lon="-0.38778">
        <ele>105</ele>
        <time>2010-11-05T17:42:09Z</time>
      </trkpt>
      <trkpt lat="49.20381" lon="-0.38793">
        <ele>105</ele>
        <time>2010-11-05T17:42:14Z</time>
      </trkpt>
      <trkpt lat="49.20377" lon="-0.38812">
        <ele>106</ele>
        <time>2010-11-05T17:42:20Z</time>
      </trkpt>
      <trkpt lat="49.20374" lon="-0.38826">
        <ele>106</ele>
        <time>2010-11-05T17:42:24Z</time>
      </trkpt>
      <trkpt lat="49.20371" lon="-0.38842">
        <ele>106</ele>
        <time>2010-11-05T17:42:29Z</time>
      </trkpt>
      <trkpt lat="49.20368" lon="-0.38854">
        <ele>106</ele>
        <time>2010-11-05T17:42:33Z</time>
      </trkpt>
      <trkpt lat="49.20365" lon="-0.38873">
        <ele>106</ele>
        <time>2010-11-05T17:42:38Z</time>
      </trkpt>
      <trkpt lat="49.20363" lon="-0.3889">
        <ele>106</ele>
        <time>2010-11-05T17:42:42Z</time>
      </trkpt>
      <trkpt lat="49.20359" lon="-0.38905">
        <ele>107</ele>
        <time>2010-11-05T17:42:47Z</time>
      </trkpt>
      <trkpt lat="49.20354" lon="-0.38923">
        <ele>107</ele>
        <time>2010-11-05T17:42:53Z</time>
      </trkpt>
      <trkpt lat="49.20352" lon="-0.38933">
        <ele>107</ele>
        <time>2010-11-05T17:42:56Z</time>
      </trkpt>
      <trkpt lat="49.20348" lon="-0.3895">
        <ele>107</ele>
        <time>2010-11-05T17:43:01Z</time>
      </trkpt>
      <trkpt lat="49.20345" lon="-0.38964">
        <ele>107</ele>
        <time>2010-11-05T17:43:05Z</time>
      </trkpt>
      <trkpt lat="49.20342" lon="-0.3898">
        <ele>106</ele>
        <time>2010-11-05T17:43:10Z</time>
      </trkpt>
      <trkpt lat="49.20339" lon="-0.38994">
        <ele>107</ele>
        <time>2010-11-05T17:43:14Z</time>
      </trkpt>
      <trkpt lat="49.20335" lon="-0.39007">
        <ele>107</ele>
        <time>2010-11-05T17:43:18Z</time>
      </trkpt>
      <trkpt lat="49.2033" lon="-0.39025">
        <ele>107</ele>
        <time>2010-11-05T17:43:24Z</time>
      </trkpt>
      <trkpt lat="49.20326" lon="-0.3904">
        <ele>107</ele>
        <time>2010-11-05T17:43:28Z</time>
      </trkpt>
      <trkpt lat="49.20323" lon="-0.39056">
        <ele>108</ele>
        <time>2010-11-05T17:43:32Z</time>
      </trkpt>
      <trkpt lat="49.20318" lon="-0.39068">
        <ele>108</ele>
        <time>2010-11-05T17:43:37Z</time>
      </trkpt>
      <trkpt lat="49.20309" lon="-0.39065">
        <ele>108</ele>
        <time>2010-11-05T17:43:43Z</time>
      </trkpt>
      <trkpt lat="49.20303" lon="-0.39066">
        <ele>108</ele>
        <time>2010-11-05T17:43:46Z</time>
      </trkpt>
      <trkpt lat="49.20297" lon="-0.3907">
        <ele>109</ele>
        <time>2010-11-05T17:43:49Z</time>
      </trkpt>
      <trkpt lat="49.20291" lon="-0.39074">
        <ele>109</ele>
        <time>2010-11-05T17:43:52Z</time>
      </trkpt>
      <trkpt lat="49.20286" lon="-0.39076">
        <ele>109</ele>
        <time>2010-11-05T17:43:55Z</time>
      </trkpt>
      <trkpt lat="49.20277" lon="-0.3907">
        <ele>110</ele>
        <time>2010-11-05T17:44:02Z</time>
      </trkpt>
      <trkpt lat="49.20273" lon="-0.39064">
        <ele>111</ele>
        <time>2010-11-05T17:44:06Z</time>
      </trkpt>
      <trkpt lat="49.20268" lon="-0.39058">
        <ele>111</ele>
        <time>2010-11-05T17:44:10Z</time>
      </trkpt>
      <trkpt lat="49.20264" lon="-0.39052">
        <ele>111</ele>
        <time>2010-11-05T17:44:13Z</time>
      </trkpt>
      <trkpt lat="49.2026" lon="-0.39045">
        <ele>112</ele>
        <time>2010-11-05T17:44:16Z</time>
      </trkpt>
      <trkpt lat="49.20256" lon="-0.3904">
        <ele>112</ele>
        <time>2010-11-05T17:44:19Z</time>
      </trkpt>
      <trkpt lat="49.20252" lon="-0.39033">
        <ele>113</ele>
        <time>2010-11-05T17:44:22Z</time>
      </trkpt>
      <trkpt lat="49.20249" lon="-0.39026">
        <ele>113</ele>
        <time>2010-11-05T17:44:25Z</time>
      </trkpt>
      <trkpt lat="49.20242" lon="-0.39014">
        <ele>113</ele>
        <time>2010-11-05T17:44:30Z</time>
      </trkpt>
      <trkpt lat="49.20235" lon="-0.39003">
        <ele>113</ele>
        <time>2010-11-05T17:44:36Z</time>
      </trkpt>
      <trkpt lat="49.20227" lon="-0.38991">
        <ele>113</ele>
        <time>2010-11-05T17:44:42Z</time>
      </trkpt>
      <trkpt lat="49.20222" lon="-0.38985">
        <ele>113</ele>
        <time>2010-11-05T17:44:45Z</time>
      </trkpt>
      <trkpt lat="49.20218" lon="-0.38978">
        <ele>113</ele>
        <time>2010-11-05T17:44:48Z</time>
      </trkpt>
      <trkpt lat="49.20211" lon="-0.38967">
        <ele>113</ele>
        <time>2010-11-05T17:44:53Z</time>
      </trkpt>
      <trkpt lat="49.20207" lon="-0.38954">
        <ele>114</ele>
        <time>2010-11-05T17:44:58Z</time>
      </trkpt>
      <trkpt lat="49.20202" lon="-0.38946">
        <ele>114</ele>
        <time>2010-11-05T17:45:02Z</time>
      </trkpt>
      <trkpt lat="49.20196" lon="-0.38933">
        <ele>114</ele>
        <time>2010-11-05T17:45:07Z</time>
      </trkpt>
      <trkpt lat="49.20189" lon="-0.38922">
        <ele>114</ele>
        <time>2010-11-05T17:45:11Z</time>
      </trkpt>
      <trkpt lat="49.20184" lon="-0.38903">
        <ele>115</ele>
        <time>2010-11-05T17:45:17Z</time>
      </trkpt>
      <trkpt lat="49.20179" lon="-0.38891">
        <ele>115</ele>
        <time>2010-11-05T17:45:21Z</time>
      </trkpt>
      <trkpt lat="49.20173" lon="-0.38881">
        <ele>115</ele>
        <time>2010-11-05T17:45:27Z</time>
      </trkpt>
      <trkpt lat="49.20163" lon="-0.38871">
        <ele>115</ele>
        <time>2010-11-05T17:45:32Z</time>
      </trkpt>
      <trkpt lat="49.20139" lon="-0.38856">
        <ele>112</ele>
        <time>2010-11-05T17:45:41Z</time>
      </trkpt>
      <trkpt lat="49.20128" lon="-0.38857">
        <ele>112</ele>
        <time>2010-11-05T17:45:46Z</time>
      </trkpt>
      <trkpt lat="49.20122" lon="-0.38856">
        <ele>113</ele>
        <time>2010-11-05T17:45:48Z</time>
      </trkpt>
      <trkpt lat="49.20117" lon="-0.38854">
        <ele>114</ele>
        <time>2010-11-05T17:45:50Z</time>
      </trkpt>
      <trkpt lat="49.20107" lon="-0.38854">
        <ele>113</ele>
        <time>2010-11-05T17:45:54Z</time>
      </trkpt>
      <trkpt lat="49.20102" lon="-0.38855">
        <ele>114</ele>
        <time>2010-11-05T17:45:57Z</time>
      </trkpt>
      <trkpt lat="49.20092" lon="-0.3885">
        <ele>114</ele>
        <time>2010-11-05T17:46:01Z</time>
      </trkpt>
      <trkpt lat="49.20081" lon="-0.38854">
        <ele>113</ele>
        <time>2010-11-05T17:46:05Z</time>
      </trkpt>
      <trkpt lat="49.20075" lon="-0.38858">
        <ele>112</ele>
        <time>2010-11-05T17:46:07Z</time>
      </trkpt>
      <trkpt lat="49.20065" lon="-0.38866">
        <ele>111</ele>
        <time>2010-11-05T17:46:11Z</time>
      </trkpt>
      <trkpt lat="49.20055" lon="-0.38876">
        <ele>111</ele>
        <time>2010-11-05T17:46:16Z</time>
      </trkpt>
      <trkpt lat="49.20046" lon="-0.38887">
        <ele>110</ele>
        <time>2010-11-05T17:46:21Z</time>
      </trkpt>
      <trkpt lat="49.2004" lon="-0.3889">
        <ele>110</ele>
        <time>2010-11-05T17:46:24Z</time>
      </trkpt>
      <trkpt lat="49.20031" lon="-0.38902">
        <ele>110</ele>
        <time>2010-11-05T17:46:29Z</time>
      </trkpt>
      <trkpt lat="49.20023" lon="-0.38915">
        <ele>110</ele>
        <time>2010-11-05T17:46:34Z</time>
      </trkpt>
      <trkpt lat="49.20013" lon="-0.38923">
        <ele>109</ele>
        <time>2010-11-05T17:46:39Z</time>
      </trkpt>
      <trkpt lat="49.20003" lon="-0.38931">
        <ele>110</ele>
        <time>2010-11-05T17:46:44Z</time>
      </trkpt>
      <trkpt lat="49.19998" lon="-0.38937">
        <ele>110</ele>
        <time>2010-11-05T17:46:47Z</time>
      </trkpt>
      <trkpt lat="49.1999" lon="-0.38948">
        <ele>110</ele>
        <time>2010-11-05T17:46:51Z</time>
      </trkpt>
      <trkpt lat="49.19985" lon="-0.38953">
        <ele>110</ele>
        <time>2010-11-05T17:46:54Z</time>
      </trkpt>
      <trkpt lat="49.19979" lon="-0.38959">
        <ele>110</ele>
        <time>2010-11-05T17:46:57Z</time>
      </trkpt>
      <trkpt lat="49.19973" lon="-0.38963">
        <ele>110</ele>
        <time>2010-11-05T17:47:00Z</time>
      </trkpt>
      <trkpt lat="49.19968" lon="-0.38967">
        <ele>109</ele>
        <time>2010-11-05T17:47:03Z</time>
      </trkpt>
      <trkpt lat="49.19958" lon="-0.38966">
        <ele>110</ele>
        <time>2010-11-05T17:47:09Z</time>
      </trkpt>
      <trkpt lat="49.19953" lon="-0.3896">
        <ele>110</ele>
        <time>2010-11-05T17:47:12Z</time>
      </trkpt>
      <trkpt lat="49.19948" lon="-0.38956">
        <ele>110</ele>
        <time>2010-11-05T17:47:15Z</time>
      </trkpt>
      <trkpt lat="49.19942" lon="-0.38952">
        <ele>110</ele>
        <time>2010-11-05T17:47:18Z</time>
      </trkpt>
      <trkpt lat="49.19936" lon="-0.38949">
        <ele>110</ele>
        <time>2010-11-05T17:47:21Z</time>
      </trkpt>
      <trkpt lat="49.1993" lon="-0.38957">
        <ele>110</ele>
        <time>2010-11-05T17:47:27Z</time>
      </trkpt>
      <trkpt lat="49.19931" lon="-0.38966">
        <ele>109</ele>
        <time>2010-11-05T17:47:30Z</time>
      </trkpt>
      <trkpt lat="49.19933" lon="-0.38974">
        <ele>109</ele>
        <time>2010-11-05T17:47:33Z</time>
      </trkpt>
      <trkpt lat="49.19931" lon="-0.38983">
        <ele>109</ele>
        <time>2010-11-05T17:47:36Z</time>
      </trkpt>
      <trkpt lat="49.19924" lon="-0.38975">
        <ele>109</ele>
        <time>2010-11-05T17:47:43Z</time>
      </trkpt>
      <trkpt lat="49.19921" lon="-0.38967">
        <ele>110</ele>
        <time>2010-11-05T17:47:46Z</time>
      </trkpt>
      <trkpt lat="49.19918" lon="-0.3896">
        <ele>109</ele>
        <time>2010-11-05T17:47:49Z</time>
      </trkpt>
      <trkpt lat="49.19912" lon="-0.38948">
        <ele>110</ele>
        <time>2010-11-05T17:47:53Z</time>
      </trkpt>
      <trkpt lat="49.19905" lon="-0.38934">
        <ele>110</ele>
        <time>2010-11-05T17:47:58Z</time>
      </trkpt>
      <trkpt lat="49.19899" lon="-0.38921">
        <ele>110</ele>
        <time>2010-11-05T17:48:02Z</time>
      </trkpt>
      <trkpt lat="49.19892" lon="-0.38909">
        <ele>110</ele>
        <time>2010-11-05T17:48:06Z</time>
      </trkpt>
      <trkpt lat="49.19886" lon="-0.38897">
        <ele>110</ele>
        <time>2010-11-05T17:48:10Z</time>
      </trkpt>
      <trkpt lat="49.19883" lon="-0.38882">
        <ele>110</ele>
        <time>2010-11-05T17:48:14Z</time>
      </trkpt>
      <trkpt lat="49.19881" lon="-0.38866">
        <ele>110</ele>
        <time>2010-11-05T17:48:19Z</time>
      </trkpt>
      <trkpt lat="49.1988" lon="-0.38852">
        <ele>110</ele>
        <time>2010-11-05T17:48:23Z</time>
      </trkpt>
      <trkpt lat="49.19878" lon="-0.38837">
        <ele>111</ele>
        <time>2010-11-05T17:48:27Z</time>
      </trkpt>
      <trkpt lat="49.19874" lon="-0.38824">
        <ele>110</ele>
        <time>2010-11-05T17:48:31Z</time>
      </trkpt>
      <trkpt lat="49.19871" lon="-0.3881">
        <ele>110</ele>
        <time>2010-11-05T17:48:35Z</time>
      </trkpt>
      <trkpt lat="49.1987" lon="-0.38795">
        <ele>111</ele>
        <time>2010-11-05T17:48:39Z</time>
      </trkpt>
      <trkpt lat="49.19867" lon="-0.38779">
        <ele>111</ele>
        <time>2010-11-05T17:48:43Z</time>
      </trkpt>
      <trkpt lat="49.19863" lon="-0.38764">
        <ele>111</ele>
        <time>2010-11-05T17:48:47Z</time>
      </trkpt>
      <trkpt lat="49.19861" lon="-0.3875">
        <ele>111</ele>
        <time>2010-11-05T17:48:51Z</time>
      </trkpt>
      <trkpt lat="49.19857" lon="-0.38734">
        <ele>111</ele>
        <time>2010-11-05T17:48:55Z</time>
      </trkpt>
      <trkpt lat="49.19852" lon="-0.38709">
        <ele>111</ele>
        <time>2010-11-05T17:49:01Z</time>
      </trkpt>
      <trkpt lat="49.19846" lon="-0.38687">
        <ele>111</ele>
        <time>2010-11-05T17:49:07Z</time>
      </trkpt>
      <trkpt lat="49.19841" lon="-0.38667">
        <ele>111</ele>
        <time>2010-11-05T17:49:13Z</time>
      </trkpt>
      <trkpt lat="49.19838" lon="-0.38646">
        <ele>110</ele>
        <time>2010-11-05T17:49:19Z</time>
      </trkpt>
      <trkpt lat="49.19835" lon="-0.38632">
        <ele>111</ele>
        <time>2010-11-05T17:49:23Z</time>
      </trkpt>
      <trkpt lat="49.19833" lon="-0.38617">
        <ele>110</ele>
        <time>2010-11-05T17:49:27Z</time>
      </trkpt>
      <trkpt lat="49.1983" lon="-0.38595">
        <ele>110</ele>
        <time>2010-11-05T17:49:33Z</time>
      </trkpt>
      <trkpt lat="49.19826" lon="-0.38573">
        <ele>110</ele>
        <time>2010-11-05T17:49:39Z</time>
      </trkpt>
      <trkpt lat="49.19823" lon="-0.3855">
        <ele>110</ele>
        <time>2010-11-05T17:49:45Z</time>
      </trkpt>
      <trkpt lat="49.19818" lon="-0.38528">
        <ele>109</ele>
        <time>2010-11-05T17:49:51Z</time>
      </trkpt>
      <trkpt lat="49.19815" lon="-0.38506">
        <ele>109</ele>
        <time>2010-11-05T17:49:57Z</time>
      </trkpt>
      <trkpt lat="49.19811" lon="-0.3848">
        <ele>110</ele>
        <time>2010-11-05T17:50:05Z</time>
      </trkpt>
      <trkpt lat="49.19808" lon="-0.38464">
        <ele>110</ele>
        <time>2010-11-05T17:50:09Z</time>
      </trkpt>
      <trkpt lat="49.19807" lon="-0.38449">
        <ele>110</ele>
        <time>2010-11-05T17:50:13Z</time>
      </trkpt>
      <trkpt lat="49.19803" lon="-0.38427">
        <ele>109</ele>
        <time>2010-11-05T17:50:19Z</time>
      </trkpt>
      <trkpt lat="49.19798" lon="-0.38403">
        <ele>108</ele>
        <time>2010-11-05T17:50:26Z</time>
      </trkpt>
      <trkpt lat="49.19799" lon="-0.38379">
        <ele>109</ele>
        <time>2010-11-05T17:50:35Z</time>
      </trkpt>
      <trkpt lat="49.19804" lon="-0.38375">
        <ele>107</ele>
        <time>2010-11-05T17:50:39Z</time>
      </trkpt>
      <trkpt lat="49.1981" lon="-0.38378">
        <ele>107</ele>
        <time>2010-11-05T17:50:42Z</time>
      </trkpt>
      <trkpt lat="49.19817" lon="-0.38381">
        <ele>107</ele>
        <time>2010-11-05T17:50:45Z</time>
      </trkpt>
      <trkpt lat="49.19822" lon="-0.38387">
        <ele>106</ele>
        <time>2010-11-05T17:50:48Z</time>
      </trkpt>
      <trkpt lat="49.19831" lon="-0.38395">
        <ele>106</ele>
        <time>2010-11-05T17:50:52Z</time>
      </trkpt>
      <trkpt lat="49.1984" lon="-0.38402">
        <ele>107</ele>
        <time>2010-11-05T17:50:56Z</time>
      </trkpt>
      <trkpt lat="49.1985" lon="-0.38408">
        <ele>106</ele>
        <time>2010-11-05T17:51:01Z</time>
      </trkpt>
      <trkpt lat="49.1986" lon="-0.38413">
        <ele>106</ele>
        <time>2010-11-05T17:51:05Z</time>
      </trkpt>
      <trkpt lat="49.19867" lon="-0.38423">
        <ele>106</ele>
        <time>2010-11-05T17:51:09Z</time>
      </trkpt>
      <trkpt lat="49.19871" lon="-0.38431">
        <ele>106</ele>
        <time>2010-11-05T17:51:12Z</time>
      </trkpt>
      <trkpt lat="49.19875" lon="-0.38439">
        <ele>106</ele>
        <time>2010-11-05T17:51:15Z</time>
      </trkpt>
      <trkpt lat="49.19881" lon="-0.38451">
        <ele>106</ele>
        <time>2010-11-05T17:51:19Z</time>
      </trkpt>
      <trkpt lat="49.19886" lon="-0.38466">
        <ele>106</ele>
        <time>2010-11-05T17:51:24Z</time>
      </trkpt>
      <trkpt lat="49.19894" lon="-0.3848">
        <ele>106</ele>
        <time>2010-11-05T17:51:30Z</time>
      </trkpt>
      <trkpt lat="49.199" lon="-0.38498">
        <ele>106</ele>
        <time>2010-11-05T17:51:36Z</time>
      </trkpt>
      <trkpt lat="49.19906" lon="-0.38511">
        <ele>107</ele>
        <time>2010-11-05T17:51:41Z</time>
      </trkpt>
      <trkpt lat="49.19913" lon="-0.38525">
        <ele>107</ele>
        <time>2010-11-05T17:51:46Z</time>
      </trkpt>
      <trkpt lat="49.19918" lon="-0.38541">
        <ele>107</ele>
        <time>2010-11-05T17:51:52Z</time>
      </trkpt>
      <trkpt lat="49.19923" lon="-0.38551">
        <ele>107</ele>
        <time>2010-11-05T17:51:56Z</time>
      </trkpt>
      <trkpt lat="49.1993" lon="-0.38564">
        <ele>107</ele>
        <time>2010-11-05T17:52:01Z</time>
      </trkpt>
      <trkpt lat="49.19937" lon="-0.38574">
        <ele>107</ele>
        <time>2010-11-05T17:52:05Z</time>
      </trkpt>
      <trkpt lat="49.19945" lon="-0.38589">
        <ele>107</ele>
        <time>2010-11-05T17:52:11Z</time>
      </trkpt>
      <trkpt lat="49.19952" lon="-0.38601">
        <ele>107</ele>
        <time>2010-11-05T17:52:16Z</time>
      </trkpt>
      <trkpt lat="49.1996" lon="-0.38614">
        <ele>107</ele>
        <time>2010-11-05T17:52:21Z</time>
      </trkpt>
      <trkpt lat="49.19967" lon="-0.38627">
        <ele>108</ele>
        <time>2010-11-05T17:52:26Z</time>
      </trkpt>
      <trkpt lat="49.19974" lon="-0.38639">
        <ele>108</ele>
        <time>2010-11-05T17:52:32Z</time>
      </trkpt>
      <trkpt lat="49.19981" lon="-0.38654">
        <ele>108</ele>
        <time>2010-11-05T17:52:36Z</time>
      </trkpt>
      <trkpt lat="49.19988" lon="-0.38666">
        <ele>109</ele>
        <time>2010-11-05T17:52:42Z</time>
      </trkpt>
      <trkpt lat="49.19997" lon="-0.38678">
        <ele>109</ele>
        <time>2010-11-05T17:52:47Z</time>
      </trkpt>
      <trkpt lat="49.20004" lon="-0.38691">
        <ele>109</ele>
        <time>2010-11-05T17:52:52Z</time>
      </trkpt>
      <trkpt lat="49.20012" lon="-0.38704">
        <ele>110</ele>
        <time>2010-11-05T17:52:59Z</time>
      </trkpt>
      <trkpt lat="49.2002" lon="-0.38715">
        <ele>109</ele>
        <time>2010-11-05T17:53:03Z</time>
      </trkpt>
      <trkpt lat="49.20026" lon="-0.38725">
        <ele>110</ele>
        <time>2010-11-05T17:53:07Z</time>
      </trkpt>
      <trkpt lat="49.20033" lon="-0.38735">
        <ele>110</ele>
        <time>2010-11-05T17:53:11Z</time>
      </trkpt>
      <trkpt lat="49.20041" lon="-0.38749">
        <ele>110</ele>
        <time>2010-11-05T17:53:17Z</time>
      </trkpt>
      <trkpt lat="49.20049" lon="-0.38762">
        <ele>110</ele>
        <time>2010-11-05T17:53:23Z</time>
      </trkpt>
      <trkpt lat="49.20057" lon="-0.38771">
        <ele>111</ele>
        <time>2010-11-05T17:53:27Z</time>
      </trkpt>
      <trkpt lat="49.20065" lon="-0.38783">
        <ele>111</ele>
        <time>2010-11-05T17:53:33Z</time>
      </trkpt>
      <trkpt lat="49.20072" lon="-0.38795">
        <ele>111</ele>
        <time>2010-11-05T17:53:37Z</time>
      </trkpt>
      <trkpt lat="49.20075" lon="-0.38812">
        <ele>112</ele>
        <time>2010-11-05T17:53:42Z</time>
      </trkpt>
      <trkpt lat="49.20075" lon="-0.38827">
        <ele>112</ele>
        <time>2010-11-05T17:53:46Z</time>
      </trkpt>
      <trkpt lat="49.20075" lon="-0.38842">
        <ele>112</ele>
        <time>2010-11-05T17:53:51Z</time>
      </trkpt>
      <trkpt lat="49.2008" lon="-0.38855">
        <ele>112</ele>
        <time>2010-11-05T17:53:58Z</time>
      </trkpt>
      <trkpt lat="49.20085" lon="-0.38859">
        <ele>112</ele>
        <time>2010-11-05T17:54:01Z</time>
      </trkpt>
      <trkpt lat="49.20095" lon="-0.3886">
        <ele>112</ele>
        <time>2010-11-05T17:54:05Z</time>
      </trkpt>
      <trkpt lat="49.201" lon="-0.38859">
        <ele>112</ele>
        <time>2010-11-05T17:54:08Z</time>
      </trkpt>
      <trkpt lat="49.20106" lon="-0.38864">
        <ele>112</ele>
        <time>2010-11-05T17:54:11Z</time>
      </trkpt>
      <trkpt lat="49.20115" lon="-0.38872">
        <ele>112</ele>
        <time>2010-11-05T17:54:18Z</time>
      </trkpt>
      <trkpt lat="49.20127" lon="-0.38875">
        <ele>113</ele>
        <time>2010-11-05T17:54:24Z</time>
      </trkpt>
      <trkpt lat="49.20136" lon="-0.38883">
        <ele>113</ele>
        <time>2010-11-05T17:54:28Z</time>
      </trkpt>
      <trkpt lat="49.20147" lon="-0.3889">
        <ele>113</ele>
        <time>2010-11-05T17:54:34Z</time>
      </trkpt>
      <trkpt lat="49.20155" lon="-0.38904">
        <ele>113</ele>
        <time>2010-11-05T17:54:40Z</time>
      </trkpt>
      <trkpt lat="49.20165" lon="-0.38916">
        <ele>113</ele>
        <time>2010-11-05T17:54:46Z</time>
      </trkpt>
      <trkpt lat="49.20174" lon="-0.38927">
        <ele>113</ele>
        <time>2010-11-05T17:54:53Z</time>
      </trkpt>
      <trkpt lat="49.20178" lon="-0.38934">
        <ele>113</ele>
        <time>2010-11-05T17:54:55Z</time>
      </trkpt>
      <trkpt lat="49.20182" lon="-0.38941">
        <ele>113</ele>
        <time>2010-11-05T17:54:58Z</time>
      </trkpt>
      <trkpt lat="49.20187" lon="-0.38953">
        <ele>113</ele>
        <time>2010-11-05T17:55:02Z</time>
      </trkpt>
      <trkpt lat="49.20192" lon="-0.38959">
        <ele>114</ele>
        <time>2010-11-05T17:55:05Z</time>
      </trkpt>
      <trkpt lat="49.20202" lon="-0.38972">
        <ele>113</ele>
        <time>2010-11-05T17:55:11Z</time>
      </trkpt>
      <trkpt lat="49.2021" lon="-0.38986">
        <ele>113</ele>
        <time>2010-11-05T17:55:17Z</time>
      </trkpt>
      <trkpt lat="49.20218" lon="-0.39">
        <ele>114</ele>
        <time>2010-11-05T17:55:23Z</time>
      </trkpt>
      <trkpt lat="49.20223" lon="-0.39013">
        <ele>114</ele>
        <time>2010-11-05T17:55:27Z</time>
      </trkpt>
      <trkpt lat="49.20232" lon="-0.39024">
        <ele>114</ele>
        <time>2010-11-05T17:55:32Z</time>
      </trkpt>
      <trkpt lat="49.20237" lon="-0.39036">
        <ele>114</ele>
        <time>2010-11-05T17:55:36Z</time>
      </trkpt>
      <trkpt lat="49.20243" lon="-0.39047">
        <ele>115</ele>
        <time>2010-11-05T17:55:40Z</time>
      </trkpt>
      <trkpt lat="49.20251" lon="-0.39057">
        <ele>115</ele>
        <time>2010-11-05T17:55:45Z</time>
      </trkpt>
      <trkpt lat="49.20255" lon="-0.39064">
        <ele>115</ele>
        <time>2010-11-05T17:55:48Z</time>
      </trkpt>
      <trkpt lat="49.20262" lon="-0.39074">
        <ele>115</ele>
        <time>2010-11-05T17:55:52Z</time>
      </trkpt>
      <trkpt lat="49.20271" lon="-0.39083">
        <ele>115</ele>
        <time>2010-11-05T17:55:57Z</time>
      </trkpt>
      <trkpt lat="49.20282" lon="-0.39088">
        <ele>115</ele>
        <time>2010-11-05T17:56:02Z</time>
      </trkpt>
      <trkpt lat="49.20291" lon="-0.39086">
        <ele>114</ele>
        <time>2010-11-05T17:56:06Z</time>
      </trkpt>
      <trkpt lat="49.20298" lon="-0.39076">
        <ele>114</ele>
        <time>2010-11-05T17:56:11Z</time>
      </trkpt>
      <trkpt lat="49.20303" lon="-0.39067">
        <ele>114</ele>
        <time>2010-11-05T17:56:14Z</time>
      </trkpt>
      <trkpt lat="49.20304" lon="-0.39059">
        <ele>114</ele>
        <time>2010-11-05T17:56:17Z</time>
      </trkpt>
      <trkpt lat="49.20306" lon="-0.3905">
        <ele>114</ele>
        <time>2010-11-05T17:56:20Z</time>
      </trkpt>
      <trkpt lat="49.20309" lon="-0.39034">
        <ele>113</ele>
        <time>2010-11-05T17:56:26Z</time>
      </trkpt>
      <trkpt lat="49.20312" lon="-0.39021">
        <ele>112</ele>
        <time>2010-11-05T17:56:32Z</time>
      </trkpt>
      <trkpt lat="49.20315" lon="-0.39006">
        <ele>111</ele>
        <time>2010-11-05T17:56:38Z</time>
      </trkpt>
      <trkpt lat="49.20317" lon="-0.38998">
        <ele>111</ele>
        <time>2010-11-05T17:56:41Z</time>
      </trkpt>
      <trkpt lat="49.20319" lon="-0.3899">
        <ele>111</ele>
        <time>2010-11-05T17:56:44Z</time>
      </trkpt>
      <trkpt lat="49.20323" lon="-0.38983">
        <ele>111</ele>
        <time>2010-11-05T17:56:47Z</time>
      </trkpt>
      <trkpt lat="49.20326" lon="-0.38968">
        <ele>111</ele>
        <time>2010-11-05T17:56:53Z</time>
      </trkpt>
      <trkpt lat="49.20326" lon="-0.38959">
        <ele>111</ele>
        <time>2010-11-05T17:56:56Z</time>
      </trkpt>
      <trkpt lat="49.20327" lon="-0.38951">
        <ele>111</ele>
        <time>2010-11-05T17:56:59Z</time>
      </trkpt>
      <trkpt lat="49.20328" lon="-0.38934">
        <ele>111</ele>
        <time>2010-11-05T17:57:05Z</time>
      </trkpt>
      <trkpt lat="49.20334" lon="-0.38909">
        <ele>111</ele>
        <time>2010-11-05T17:57:13Z</time>
      </trkpt>
      <trkpt lat="49.20339" lon="-0.38891">
        <ele>111</ele>
        <time>2010-11-05T17:57:18Z</time>
      </trkpt>
      <trkpt lat="49.2034" lon="-0.38876">
        <ele>111</ele>
        <time>2010-11-05T17:57:23Z</time>
      </trkpt>
      <trkpt lat="49.20343" lon="-0.38863">
        <ele>112</ele>
        <time>2010-11-05T17:57:28Z</time>
      </trkpt>
      <trkpt lat="49.20348" lon="-0.38847">
        <ele>112</ele>
        <time>2010-11-05T17:57:33Z</time>
      </trkpt>
      <trkpt lat="49.20353" lon="-0.38831">
        <ele>112</ele>
        <time>2010-11-05T17:57:38Z</time>
      </trkpt>
      <trkpt lat="49.20356" lon="-0.38816">
        <ele>112</ele>
        <time>2010-11-05T17:57:43Z</time>
      </trkpt>
      <trkpt lat="49.20358" lon="-0.38801">
        <ele>112</ele>
        <time>2010-11-05T17:57:47Z</time>
      </trkpt>
      <trkpt lat="49.20362" lon="-0.38785">
        <ele>112</ele>
        <time>2010-11-05T17:57:52Z</time>
      </trkpt>
      <trkpt lat="49.20365" lon="-0.38769">
        <ele>112</ele>
        <time>2010-11-05T17:57:59Z</time>
      </trkpt>
      <trkpt lat="49.20369" lon="-0.38754">
        <ele>112</ele>
        <time>2010-11-05T17:58:04Z</time>
      </trkpt>
      <trkpt lat="49.2037" lon="-0.38745">
        <ele>112</ele>
        <time>2010-11-05T17:58:07Z</time>
      </trkpt>
      <trkpt lat="49.20373" lon="-0.38729">
        <ele>113</ele>
        <time>2010-11-05T17:58:12Z</time>
      </trkpt>
      <trkpt lat="49.20377" lon="-0.38716">
        <ele>112</ele>
        <time>2010-11-05T17:58:17Z</time>
      </trkpt>
      <trkpt lat="49.20381" lon="-0.38698">
        <ele>112</ele>
        <time>2010-11-05T17:58:23Z</time>
      </trkpt>
      <trkpt lat="49.20385" lon="-0.38684">
        <ele>112</ele>
        <time>2010-11-05T17:58:28Z</time>
      </trkpt>
      <trkpt lat="49.20391" lon="-0.38669">
        <ele>112</ele>
        <time>2010-11-05T17:58:33Z</time>
      </trkpt>
      <trkpt lat="49.20397" lon="-0.38655">
        <ele>111</ele>
        <time>2010-11-05T17:58:37Z</time>
      </trkpt>
      <trkpt lat="49.20402" lon="-0.38638">
        <ele>111</ele>
        <time>2010-11-05T17:58:42Z</time>
      </trkpt>
      <trkpt lat="49.20407" lon="-0.38625">
        <ele>111</ele>
        <time>2010-11-05T17:58:46Z</time>
      </trkpt>
      <trkpt lat="49.20413" lon="-0.38608">
        <ele>112</ele>
        <time>2010-11-05T17:58:51Z</time>
      </trkpt>
      <trkpt lat="49.2042" lon="-0.38595">
        <ele>112</ele>
        <time>2010-11-05T17:58:55Z</time>
      </trkpt>
      <trkpt lat="49.20428" lon="-0.38583">
        <ele>114</ele>
        <time>2010-11-05T17:58:59Z</time>
      </trkpt>
      <trkpt lat="49.20434" lon="-0.3857">
        <ele>114</ele>
        <time>2010-11-05T17:59:03Z</time>
      </trkpt>
      <trkpt lat="49.20439" lon="-0.38557">
        <ele>115</ele>
        <time>2010-11-05T17:59:07Z</time>
      </trkpt>
      <trkpt lat="49.20443" lon="-0.38543">
        <ele>116</ele>
        <time>2010-11-05T17:59:11Z</time>
      </trkpt>
      <trkpt lat="49.2045" lon="-0.38529">
        <ele>116</ele>
        <time>2010-11-05T17:59:16Z</time>
      </trkpt>
      <trkpt lat="49.20454" lon="-0.38515">
        <ele>116</ele>
        <time>2010-11-05T17:59:20Z</time>
      </trkpt>
      <trkpt lat="49.20459" lon="-0.38502">
        <ele>115</ele>
        <time>2010-11-05T17:59:24Z</time>
      </trkpt>
      <trkpt lat="49.20465" lon="-0.3849">
        <ele>116</ele>
        <time>2010-11-05T17:59:28Z</time>
      </trkpt>
      <trkpt lat="49.2047" lon="-0.38478">
        <ele>115</ele>
        <time>2010-11-05T17:59:32Z</time>
      </trkpt>
      <trkpt lat="49.20476" lon="-0.38462">
        <ele>116</ele>
        <time>2010-11-05T17:59:37Z</time>
      </trkpt>
      <trkpt lat="49.20482" lon="-0.38447">
        <ele>117</ele>
        <time>2010-11-05T17:59:42Z</time>
      </trkpt>
      <trkpt lat="49.20487" lon="-0.38432">
        <ele>117</ele>
        <time>2010-11-05T17:59:47Z</time>
      </trkpt>
      <trkpt lat="49.20494" lon="-0.38419">
        <ele>117</ele>
        <time>2010-11-05T17:59:52Z</time>
      </trkpt>
      <trkpt lat="49.20498" lon="-0.3841">
        <ele>116</ele>
        <time>2010-11-05T17:59:55Z</time>
      </trkpt>
      <trkpt lat="49.20506" lon="-0.38396">
        <ele>116</ele>
        <time>2010-11-05T18:00:00Z</time>
      </trkpt>
      <trkpt lat="49.20513" lon="-0.38383">
        <ele>116</ele>
        <time>2010-11-05T18:00:04Z</time>
      </trkpt>
      <trkpt lat="49.20517" lon="-0.38371">
        <ele>116</ele>
        <time>2010-11-05T18:00:08Z</time>
      </trkpt>
      <trkpt lat="49.20525" lon="-0.38356">
        <ele>115</ele>
        <time>2010-11-05T18:00:13Z</time>
      </trkpt>
      <trkpt lat="49.20529" lon="-0.38348">
        <ele>116</ele>
        <time>2010-11-05T18:00:16Z</time>
      </trkpt>
      <trkpt lat="49.20536" lon="-0.38335">
        <ele>116</ele>
        <time>2010-11-05T18:00:20Z</time>
      </trkpt>
      <trkpt lat="49.20542" lon="-0.38323">
        <ele>115</ele>
        <time>2010-11-05T18:00:24Z</time>
      </trkpt>
      <trkpt lat="49.20552" lon="-0.38309">
        <ele>115</ele>
        <time>2010-11-05T18:00:29Z</time>
      </trkpt>
      <trkpt lat="49.20559" lon="-0.38294">
        <ele>115</ele>
        <time>2010-11-05T18:00:34Z</time>
      </trkpt>
      <trkpt lat="49.20566" lon="-0.38279">
        <ele>115</ele>
        <time>2010-11-05T18:00:39Z</time>
      </trkpt>
      <trkpt lat="49.20572" lon="-0.38267">
        <ele>114</ele>
        <time>2010-11-05T18:00:44Z</time>
      </trkpt>
      <trkpt lat="49.20579" lon="-0.3825">
        <ele>114</ele>
        <time>2010-11-05T18:00:50Z</time>
      </trkpt>
      <trkpt lat="49.20587" lon="-0.38235">
        <ele>114</ele>
        <time>2010-11-05T18:00:55Z</time>
      </trkpt>
      <trkpt lat="49.20593" lon="-0.38225">
        <ele>114</ele>
        <time>2010-11-05T18:00:59Z</time>
      </trkpt>
      <trkpt lat="49.20601" lon="-0.38213">
        <ele>115</ele>
        <time>2010-11-05T18:01:03Z</time>
      </trkpt>
      <trkpt lat="49.20609" lon="-0.38199">
        <ele>114</ele>
        <time>2010-11-05T18:01:07Z</time>
      </trkpt>
      <trkpt lat="49.20616" lon="-0.38186">
        <ele>115</ele>
        <time>2010-11-05T18:01:11Z</time>
      </trkpt>
      <trkpt lat="49.20621" lon="-0.38177">
        <ele>115</ele>
        <time>2010-11-05T18:01:14Z</time>
      </trkpt>
      <trkpt lat="49.2063" lon="-0.3816">
        <ele>115</ele>
        <time>2010-11-05T18:01:20Z</time>
      </trkpt>
      <trkpt lat="49.20639" lon="-0.38145">
        <ele>114</ele>
        <time>2010-11-05T18:01:24Z</time>
      </trkpt>
      <trkpt lat="49.20645" lon="-0.38133">
        <ele>114</ele>
        <time>2010-11-05T18:01:28Z</time>
      </trkpt>
      <trkpt lat="49.20653" lon="-0.3812">
        <ele>114</ele>
        <time>2010-11-05T18:01:33Z</time>
      </trkpt>
      <trkpt lat="49.2066" lon="-0.38107">
        <ele>113</ele>
        <time>2010-11-05T18:01:37Z</time>
      </trkpt>
      <trkpt lat="49.20667" lon="-0.38097">
        <ele>114</ele>
        <time>2010-11-05T18:01:41Z</time>
      </trkpt>
      <trkpt lat="49.20675" lon="-0.38086">
        <ele>114</ele>
        <time>2010-11-05T18:01:45Z</time>
      </trkpt>
      <trkpt lat="49.20681" lon="-0.38073">
        <ele>113</ele>
        <time>2010-11-05T18:01:49Z</time>
      </trkpt>
      <trkpt lat="49.20689" lon="-0.38062">
        <ele>113</ele>
        <time>2010-11-05T18:01:53Z</time>
      </trkpt>
      <trkpt lat="49.20696" lon="-0.38051">
        <ele>113</ele>
        <time>2010-11-05T18:01:57Z</time>
      </trkpt>
      <trkpt lat="49.20702" lon="-0.38043">
        <ele>113</ele>
        <time>2010-11-05T18:02:00Z</time>
      </trkpt>
      <trkpt lat="49.2071" lon="-0.38033">
        <ele>112</ele>
        <time>2010-11-05T18:02:04Z</time>
      </trkpt>
      <trkpt lat="49.20719" lon="-0.38022">
        <ele>113</ele>
        <time>2010-11-05T18:02:08Z</time>
      </trkpt>
      <trkpt lat="49.20726" lon="-0.38005">
        <ele>114</ele>
        <time>2010-11-05T18:02:12Z</time>
      </trkpt>
      <trkpt lat="49.20733" lon="-0.37988">
        <ele>113</ele>
        <time>2010-11-05T18:02:16Z</time>
      </trkpt>
      <trkpt lat="49.20739" lon="-0.37975">
        <ele>113</ele>
        <time>2010-11-05T18:02:20Z</time>
      </trkpt>
      <trkpt lat="49.20746" lon="-0.37962">
        <ele>113</ele>
        <time>2010-11-05T18:02:24Z</time>
      </trkpt>
      <trkpt lat="49.20753" lon="-0.3795">
        <ele>113</ele>
        <time>2010-11-05T18:02:28Z</time>
      </trkpt>
      <trkpt lat="49.20756" lon="-0.37943">
        <ele>114</ele>
        <time>2010-11-05T18:02:30Z</time>
      </trkpt>
      <trkpt lat="49.20764" lon="-0.37931">
        <ele>114</ele>
        <time>2010-11-05T18:02:34Z</time>
      </trkpt>
      <trkpt lat="49.20768" lon="-0.37924">
        <ele>114</ele>
        <time>2010-11-05T18:02:36Z</time>
      </trkpt>
      <trkpt lat="49.20775" lon="-0.37911">
        <ele>114</ele>
        <time>2010-11-05T18:02:40Z</time>
      </trkpt>
      <trkpt lat="49.20782" lon="-0.37899">
        <ele>114</ele>
        <time>2010-11-05T18:02:44Z</time>
      </trkpt>
      <trkpt lat="49.20785" lon="-0.3789">
        <ele>114</ele>
        <time>2010-11-05T18:02:46Z</time>
      </trkpt>
      <trkpt lat="49.20792" lon="-0.37875">
        <ele>113</ele>
        <time>2010-11-05T18:02:50Z</time>
      </trkpt>
      <trkpt lat="49.20801" lon="-0.3786">
        <ele>112</ele>
        <time>2010-11-05T18:02:54Z</time>
      </trkpt>
      <trkpt lat="49.20807" lon="-0.37847">
        <ele>112</ele>
        <time>2010-11-05T18:02:58Z</time>
      </trkpt>
      <trkpt lat="49.20814" lon="-0.37837">
        <ele>113</ele>
        <time>2010-11-05T18:03:02Z</time>
      </trkpt>
      <trkpt lat="49.20823" lon="-0.37835">
        <ele>113</ele>
        <time>2010-11-05T18:03:06Z</time>
      </trkpt>
      <trkpt lat="49.2083" lon="-0.37825">
        <ele>113</ele>
        <time>2010-11-05T18:03:10Z</time>
      </trkpt>
      <trkpt lat="49.20834" lon="-0.37817">
        <ele>112</ele>
        <time>2010-11-05T18:03:13Z</time>
      </trkpt>
      <trkpt lat="49.2084" lon="-0.37804">
        <ele>112</ele>
        <time>2010-11-05T18:03:18Z</time>
      </trkpt>
      <trkpt lat="49.20842" lon="-0.37795">
        <ele>112</ele>
        <time>2010-11-05T18:03:21Z</time>
      </trkpt>
      <trkpt lat="49.20849" lon="-0.37781">
        <ele>111</ele>
        <time>2010-11-05T18:03:25Z</time>
      </trkpt>
      <trkpt lat="49.20856" lon="-0.37769">
        <ele>111</ele>
        <time>2010-11-05T18:03:29Z</time>
      </trkpt>
      <trkpt lat="49.2086" lon="-0.3776">
        <ele>110</ele>
        <time>2010-11-05T18:03:31Z</time>
      </trkpt>
      <trkpt lat="49.20863" lon="-0.37753">
        <ele>110</ele>
        <time>2010-11-05T18:03:33Z</time>
      </trkpt>
      <trkpt lat="49.20866" lon="-0.37742">
        <ele>109</ele>
        <time>2010-11-05T18:03:35Z</time>
      </trkpt>
      <trkpt lat="49.20866" lon="-0.37733">
        <ele>109</ele>
        <time>2010-11-05T18:03:38Z</time>
      </trkpt>
      <trkpt lat="49.20869" lon="-0.37718">
        <ele>108</ele>
        <time>2010-11-05T18:03:49Z</time>
      </trkpt>
      <trkpt lat="49.20871" lon="-0.3771">
        <ele>108</ele>
        <time>2010-11-05T18:03:59Z</time>
      </trkpt>
      <trkpt lat="49.20879" lon="-0.37698">
        <ele>108</ele>
        <time>2010-11-05T18:04:05Z</time>
      </trkpt>
      <trkpt lat="49.20886" lon="-0.377">
        <ele>108</ele>
        <time>2010-11-05T18:04:08Z</time>
      </trkpt>
      <trkpt lat="49.2089" lon="-0.37693">
        <ele>109</ele>
        <time>2010-11-05T18:04:11Z</time>
      </trkpt>
      <trkpt lat="49.20889" lon="-0.37685">
        <ele>109</ele>
        <time>2010-11-05T18:04:13Z</time>
      </trkpt>
      <trkpt lat="49.20888" lon="-0.37667">
        <ele>109</ele>
        <time>2010-11-05T18:04:17Z</time>
      </trkpt>
      <trkpt lat="49.20888" lon="-0.37651">
        <ele>109</ele>
        <time>2010-11-05T18:04:21Z</time>
      </trkpt>
      <trkpt lat="49.2089" lon="-0.37642">
        <ele>109</ele>
        <time>2010-11-05T18:04:23Z</time>
      </trkpt>
      <trkpt lat="49.20891" lon="-0.37634">
        <ele>110</ele>
        <time>2010-11-05T18:04:25Z</time>
      </trkpt>
      <trkpt lat="49.20893" lon="-0.37623">
        <ele>110</ele>
        <time>2010-11-05T18:04:28Z</time>
      </trkpt>
      <trkpt lat="49.20895" lon="-0.37614">
        <ele>111</ele>
        <time>2010-11-05T18:04:31Z</time>
      </trkpt>
      <trkpt lat="49.20898" lon="-0.37605">
        <ele>111</ele>
        <time>2010-11-05T18:04:34Z</time>
      </trkpt>
      <trkpt lat="49.209" lon="-0.37595">
        <ele>111</ele>
        <time>2010-11-05T18:04:37Z</time>
      </trkpt>
      <trkpt lat="49.20902" lon="-0.37582">
        <ele>111</ele>
        <time>2010-11-05T18:04:41Z</time>
      </trkpt>
      <trkpt lat="49.20905" lon="-0.37572">
        <ele>111</ele>
        <time>2010-11-05T18:04:44Z</time>
      </trkpt>
      <trkpt lat="49.20907" lon="-0.37555">
        <ele>112</ele>
        <time>2010-11-05T18:04:49Z</time>
      </trkpt>
      <trkpt lat="49.20909" lon="-0.3754">
        <ele>112</ele>
        <time>2010-11-05T18:04:53Z</time>
      </trkpt>
      <trkpt lat="49.20911" lon="-0.37525">
        <ele>112</ele>
        <time>2010-11-05T18:04:57Z</time>
      </trkpt>
      <trkpt lat="49.20916" lon="-0.37509">
        <ele>113</ele>
        <time>2010-11-05T18:05:01Z</time>
      </trkpt>
      <trkpt lat="49.2092" lon="-0.37494">
        <ele>113</ele>
        <time>2010-11-05T18:05:05Z</time>
      </trkpt>
      <trkpt lat="49.20922" lon="-0.37476">
        <ele>113</ele>
        <time>2010-11-05T18:05:09Z</time>
      </trkpt>
      <trkpt lat="49.20925" lon="-0.37465">
        <ele>113</ele>
        <time>2010-11-05T18:05:11Z</time>
      </trkpt>
      <trkpt lat="49.20929" lon="-0.37448">
        <ele>114</ele>
        <time>2010-11-05T18:05:15Z</time>
      </trkpt>
      <trkpt lat="49.20935" lon="-0.37431">
        <ele>114</ele>
        <time>2010-11-05T18:05:19Z</time>
      </trkpt>
      <trkpt lat="49.20939" lon="-0.37415">
        <ele>112</ele>
        <time>2010-11-05T18:05:22Z</time>
      </trkpt>
      <trkpt lat="49.20943" lon="-0.374">
        <ele>112</ele>
        <time>2010-11-05T18:05:26Z</time>
      </trkpt>
      <trkpt lat="49.20946" lon="-0.37391">
        <ele>112</ele>
        <time>2010-11-05T18:05:28Z</time>
      </trkpt>
      <trkpt lat="49.20949" lon="-0.37381">
        <ele>111</ele>
        <time>2010-11-05T18:05:30Z</time>
      </trkpt>
      <trkpt lat="49.20951" lon="-0.37373">
        <ele>112</ele>
        <time>2010-11-05T18:05:32Z</time>
      </trkpt>
      <trkpt lat="49.20951" lon="-0.37364">
        <ele>112</ele>
        <time>2010-11-05T18:05:34Z</time>
      </trkpt>
      <trkpt lat="49.20952" lon="-0.37354">
        <ele>111</ele>
        <time>2010-11-05T18:05:36Z</time>
      </trkpt>
      <trkpt lat="49.20953" lon="-0.37345">
        <ele>112</ele>
        <time>2010-11-05T18:05:38Z</time>
      </trkpt>
      <trkpt lat="49.20956" lon="-0.37336">
        <ele>112</ele>
        <time>2010-11-05T18:05:40Z</time>
      </trkpt>
      <trkpt lat="49.20958" lon="-0.37319">
        <ele>111</ele>
        <time>2010-11-05T18:05:44Z</time>
      </trkpt>
      <trkpt lat="49.2096" lon="-0.3731">
        <ele>111</ele>
        <time>2010-11-05T18:05:46Z</time>
      </trkpt>
      <trkpt lat="49.20961" lon="-0.37301">
        <ele>111</ele>
        <time>2010-11-05T18:05:48Z</time>
      </trkpt>
      <trkpt lat="49.20962" lon="-0.37291">
        <ele>111</ele>
        <time>2010-11-05T18:05:50Z</time>
      </trkpt>
      <trkpt lat="49.20965" lon="-0.37277">
        <ele>111</ele>
        <time>2010-11-05T18:05:54Z</time>
      </trkpt>
      <trkpt lat="49.20967" lon="-0.37268">
        <ele>110</ele>
        <time>2010-11-05T18:05:56Z</time>
      </trkpt>
      <trkpt lat="49.20971" lon="-0.37253">
        <ele>110</ele>
        <time>2010-11-05T18:06:01Z</time>
      </trkpt>
      <trkpt lat="49.20972" lon="-0.37243">
        <ele>110</ele>
        <time>2010-11-05T18:06:04Z</time>
      </trkpt>
      <trkpt lat="49.20974" lon="-0.37235">
        <ele>111</ele>
        <time>2010-11-05T18:06:06Z</time>
      </trkpt>
      <trkpt lat="49.20975" lon="-0.37226">
        <ele>111</ele>
        <time>2010-11-05T18:06:08Z</time>
      </trkpt>
      <trkpt lat="49.20975" lon="-0.37217">
        <ele>110</ele>
        <time>2010-11-05T18:06:10Z</time>
      </trkpt>
      <trkpt lat="49.20978" lon="-0.37201">
        <ele>111</ele>
        <time>2010-11-05T18:06:14Z</time>
      </trkpt>
      <trkpt lat="49.2098" lon="-0.37186">
        <ele>110</ele>
        <time>2010-11-05T18:06:18Z</time>
      </trkpt>
      <trkpt lat="49.20981" lon="-0.37177">
        <ele>110</ele>
        <time>2010-11-05T18:06:20Z</time>
      </trkpt>
      <trkpt lat="49.20983" lon="-0.37168">
        <ele>110</ele>
        <time>2010-11-05T18:06:22Z</time>
      </trkpt>
      <trkpt lat="49.20985" lon="-0.3716">
        <ele>110</ele>
        <time>2010-11-05T18:06:24Z</time>
      </trkpt>
      <trkpt lat="49.20986" lon="-0.3715">
        <ele>109</ele>
        <time>2010-11-05T18:06:26Z</time>
      </trkpt>
      <trkpt lat="49.20987" lon="-0.37142">
        <ele>109</ele>
        <time>2010-11-05T18:06:28Z</time>
      </trkpt>
      <trkpt lat="49.20988" lon="-0.37133">
        <ele>109</ele>
        <time>2010-11-05T18:06:30Z</time>
      </trkpt>
      <trkpt lat="49.20993" lon="-0.3712">
        <ele>109</ele>
        <time>2010-11-05T18:06:34Z</time>
      </trkpt>
      <trkpt lat="49.20996" lon="-0.37112">
        <ele>109</ele>
        <time>2010-11-05T18:06:36Z</time>
      </trkpt>
      <trkpt lat="49.21001" lon="-0.37104">
        <ele>109</ele>
        <time>2010-11-05T18:06:38Z</time>
      </trkpt>
      <trkpt lat="49.2101" lon="-0.37094">
        <ele>109</ele>
        <time>2010-11-05T18:06:42Z</time>
      </trkpt>
      <trkpt lat="49.21019" lon="-0.37087">
        <ele>109</ele>
        <time>2010-11-05T18:06:46Z</time>
      </trkpt>
      <trkpt lat="49.21028" lon="-0.37082">
        <ele>109</ele>
        <time>2010-11-05T18:06:52Z</time>
      </trkpt>
      <trkpt lat="49.21038" lon="-0.37083">
        <ele>108</ele>
        <time>2010-11-05T18:07:00Z</time>
      </trkpt>
      <trkpt lat="49.21045" lon="-0.3707">
        <ele>109</ele>
        <time>2010-11-05T18:07:05Z</time>
      </trkpt>
      <trkpt lat="49.21049" lon="-0.37063">
        <ele>109</ele>
        <time>2010-11-05T18:07:08Z</time>
      </trkpt>
      <trkpt lat="49.21055" lon="-0.37061">
        <ele>108</ele>
        <time>2010-11-05T18:07:11Z</time>
      </trkpt>
      <trkpt lat="49.21061" lon="-0.37059">
        <ele>109</ele>
        <time>2010-11-05T18:07:14Z</time>
      </trkpt>
      <trkpt lat="49.21071" lon="-0.37053">
        <ele>109</ele>
        <time>2010-11-05T18:07:19Z</time>
      </trkpt>
      <trkpt lat="49.21076" lon="-0.37047">
        <ele>109</ele>
        <time>2010-11-05T18:07:21Z</time>
      </trkpt>
      <trkpt lat="49.21082" lon="-0.3704">
        <ele>109</ele>
        <time>2010-11-05T18:07:24Z</time>
      </trkpt>
      <trkpt lat="49.2109" lon="-0.3703">
        <ele>108</ele>
        <time>2010-11-05T18:07:29Z</time>
      </trkpt>
      <trkpt lat="49.21095" lon="-0.37016">
        <ele>108</ele>
        <time>2010-11-05T18:07:35Z</time>
      </trkpt>
      <trkpt lat="49.211" lon="-0.37009">
        <ele>109</ele>
        <time>2010-11-05T18:07:38Z</time>
      </trkpt>
      <trkpt lat="49.21105" lon="-0.37003">
        <ele>109</ele>
        <time>2010-11-05T18:07:41Z</time>
      </trkpt>
      <trkpt lat="49.21114" lon="-0.36993">
        <ele>109</ele>
        <time>2010-11-05T18:07:46Z</time>
      </trkpt>
      <trkpt lat="49.21119" lon="-0.36989">
        <ele>109</ele>
        <time>2010-11-05T18:07:49Z</time>
      </trkpt>
      <trkpt lat="49.21125" lon="-0.36987">
        <ele>109</ele>
        <time>2010-11-05T18:07:50Z</time>
      </trkpt>
      <trkpt lat="49.21129" lon="-0.36981">
        <ele>109</ele>
        <time>2010-11-05T18:07:52Z</time>
      </trkpt>
      <trkpt lat="49.21134" lon="-0.36977">
        <ele>109</ele>
        <time>2010-11-05T18:07:55Z</time>
      </trkpt>
      <trkpt lat="49.21144" lon="-0.36969">
        <ele>109</ele>
        <time>2010-11-05T18:07:58Z</time>
      </trkpt>
      <trkpt lat="49.21149" lon="-0.36965">
        <ele>109</ele>
        <time>2010-11-05T18:08:00Z</time>
      </trkpt>
      <trkpt lat="49.2116" lon="-0.3696">
        <ele>110</ele>
        <time>2010-11-05T18:08:06Z</time>
      </trkpt>
      <trkpt lat="49.21171" lon="-0.36968">
        <ele>112</ele>
        <time>2010-11-05T18:08:10Z</time>
      </trkpt>
      <trkpt lat="49.2118" lon="-0.36974">
        <ele>115</ele>
        <time>2010-11-05T18:08:16Z</time>
      </trkpt>
      <trkpt lat="49.21187" lon="-0.36991">
        <ele>115</ele>
        <time>2010-11-05T18:08:20Z</time>
      </trkpt>
      <trkpt lat="49.21191" lon="-0.37005">
        <ele>115</ele>
        <time>2010-11-05T18:08:24Z</time>
      </trkpt>
      <trkpt lat="49.21193" lon="-0.37019">
        <ele>115</ele>
        <time>2010-11-05T18:08:28Z</time>
      </trkpt>
      <trkpt lat="49.212" lon="-0.3703">
        <ele>114</ele>
        <time>2010-11-05T18:08:36Z</time>
      </trkpt>
      <trkpt lat="49.21202" lon="-0.37045">
        <ele>116</ele>
        <time>2010-11-05T18:08:47Z</time>
      </trkpt>
      <trkpt lat="49.21206" lon="-0.37059">
        <ele>116</ele>
        <time>2010-11-05T18:08:56Z</time>
      </trkpt>
      <trkpt lat="49.21211" lon="-0.3707">
        <ele>116</ele>
        <time>2010-11-05T18:09:02Z</time>
      </trkpt>
    </trkseg>
  </trk>
</gpx>